createdAt,value
2023-05-10T00:02:00.341Z,3.72
2023-05-10T00:04:28.633Z,2.92
2023-05-10T00:06:56.818Z,2.90
2023-05-10T00:09:24.727Z,2.80
2023-05-10T00:11:54.051Z,3.10
2023-05-10T00:14:22.579Z,3.33
2023-05-10T00:16:51.228Z,3.33
2023-05-10T00:19:20.712Z,3.30
2023-05-10T00:21:48.831Z,3.45
2023-05-10T00:24:20.548Z,3.33
2023-05-10T00:26:48.717Z,3.00
2023-05-10T00:29:48.982Z,3.55
2023-05-10T00:32:18.381Z,3.05
2023-05-10T00:34:46.959Z,3.05
2023-05-10T00:37:15.016Z,3.20
2023-05-10T00:39:49.092Z,3.28
2023-05-10T00:42:17.114Z,3.30
2023-05-10T00:44:45.193Z,3.83
2023-05-10T00:47:13.370Z,2.83
2023-05-10T00:49:42.808Z,3.20
2023-05-10T00:52:10.997Z,3.15
2023-05-10T00:54:39.221Z,3.28
2023-05-10T00:57:08.028Z,3.30
2023-05-10T00:59:36.561Z,3.28
2023-05-10T01:02:05.059Z,3.72
2023-05-10T01:04:56.542Z,4.80
2023-05-10T01:07:27.449Z,6.20
2023-05-10T01:09:56.156Z,4.15
2023-05-10T01:12:24.132Z,4.32
2023-05-10T01:14:56.056Z,4.45
2023-05-10T01:17:24.738Z,4.28
2023-05-10T01:19:52.854Z,4.15
2023-05-10T01:22:31.948Z,3.70
2023-05-10T01:25:23.582Z,4.35
2023-05-10T01:27:57.727Z,3.63
2023-05-10T01:31:02.227Z,3.63
2023-05-10T01:33:50.635Z,4.10
2023-05-10T01:36:33.939Z,4.05
2023-05-10T01:39:30.334Z,3.60
2023-05-10T01:42:07.518Z,4.00
2023-05-10T01:44:51.795Z,3.80
2023-05-10T01:47:43.846Z,4.03
2023-05-10T01:50:17.211Z,3.92
2023-05-10T01:52:49.327Z,4.07
2023-05-10T01:55:19.623Z,4.20
2023-05-10T01:57:48.390Z,5.40
2023-05-10T02:00:16.670Z,5.25
2023-05-10T02:02:50.086Z,5.32
2023-05-10T02:05:18.378Z,6.32
2023-05-10T02:07:46.728Z,5.53
2023-05-10T02:10:15.443Z,6.72
2023-05-10T02:13:03.945Z,6.15
2023-05-10T02:15:35.317Z,6.30
2023-05-10T02:18:03.380Z,6.88
2023-05-10T02:20:31.989Z,6.75
2023-05-10T02:23:01.950Z,6.63
2023-05-10T02:25:32.931Z,7.85
2023-05-10T02:28:05.051Z,7.22
2023-05-10T02:30:33.730Z,6.85
2023-05-10T02:33:03.232Z,6.80
2023-05-10T02:35:34.703Z,6.85
2023-05-10T02:38:04.518Z,7.55
2023-05-10T02:40:34.001Z,8.30
2023-05-10T02:43:03.819Z,7.47
2023-05-10T02:45:33.200Z,9.23
2023-05-10T02:48:01.738Z,9.50
2023-05-10T02:50:30.679Z,10.07
2023-05-10T02:53:03.572Z,9.73
2023-05-10T02:55:39.216Z,8.80
2023-05-10T02:58:11.307Z,8.57
2023-05-10T03:00:41.094Z,7.82
2023-05-10T03:03:10.509Z,8.13
2023-05-10T03:05:41.933Z,8.20
2023-05-10T03:08:10.422Z,7.35
2023-05-10T03:11:01.712Z,8.68
2023-05-10T03:13:36.578Z,6.28
2023-05-10T03:16:19.227Z,6.10
2023-05-10T03:18:48.211Z,6.85
2023-05-10T03:21:17.583Z,7.13
2023-05-10T03:24:05.926Z,6.65
2023-05-10T03:26:34.986Z,5.90
2023-05-10T03:29:31.998Z,6.90
2023-05-10T03:32:04.596Z,6.80
2023-05-10T03:34:37.413Z,7.13
2023-05-10T03:37:06.202Z,6.70
2023-05-10T03:39:35.753Z,6.78
2023-05-10T03:42:06.246Z,5.30
2023-05-10T03:44:37.049Z,6.60
2023-05-10T03:47:07.979Z,5.45
2023-05-10T03:49:36.412Z,5.53
2023-05-10T03:52:05.126Z,5.35
2023-05-10T03:54:33.774Z,5.80
2023-05-10T03:57:02.396Z,5.10
2023-05-10T03:59:32.623Z,4.15
2023-05-10T04:02:02.627Z,4.32
2023-05-10T04:04:31.861Z,3.95
2023-05-10T04:07:01.471Z,4.07
2023-05-10T04:09:30.415Z,3.95
2023-05-10T04:11:59.602Z,4.47
2023-05-10T04:14:33.851Z,4.13
2023-05-10T04:17:02.284Z,4.32
2023-05-10T04:19:34.510Z,4.28
2023-05-10T04:22:04.028Z,4.40
2023-05-10T04:24:32.124Z,4.82
2023-05-10T04:26:59.936Z,3.83
2023-05-10T04:29:28.232Z,4.25
2023-05-10T04:31:57.771Z,4.03
2023-05-10T04:34:28.021Z,3.65
2023-05-10T04:36:57.434Z,2.80
2023-05-10T04:39:25.573Z,2.92
2023-05-10T04:41:56.048Z,2.33
2023-05-10T04:44:25.346Z,2.38
2023-05-10T04:46:53.233Z,1.73
2023-05-10T04:49:24.450Z,2.28
2023-05-10T04:51:53.245Z,2.10
2023-05-10T04:54:21.302Z,2.33
2023-05-10T04:56:49.486Z,2.03
2023-05-10T04:59:18.417Z,1.88
2023-05-10T05:01:47.448Z,1.90
2023-05-10T05:04:17.019Z,3.47
2023-05-10T05:06:45.358Z,2.67
2023-05-10T05:09:14.558Z,1.48
2023-05-10T05:11:43.960Z,1.60
2023-05-10T05:14:12.111Z,1.63
2023-05-10T05:16:41.745Z,1.55
2023-05-10T05:19:10.457Z,1.83
2023-05-10T05:21:38.453Z,1.95
2023-05-10T05:24:06.995Z,1.85
2023-05-10T05:26:35.096Z,1.13
2023-05-10T05:29:04.405Z,1.48
2023-05-10T05:31:34.073Z,1.88
2023-05-10T05:34:02.720Z,1.35
2023-05-10T05:36:32.775Z,1.27
2023-05-10T05:39:01.882Z,1.25
2023-05-10T05:41:30.363Z,1.73
2023-05-10T05:43:58.564Z,1.40
2023-05-10T05:46:26.914Z,1.38
2023-05-10T05:48:55.329Z,1.50
2023-05-10T05:51:24.791Z,1.30
2023-05-10T05:53:52.794Z,1.17
2023-05-10T05:56:26.808Z,1.75
2023-05-10T05:59:15.204Z,1.60
2023-05-10T06:01:43.577Z,1.00
2023-05-10T06:04:12.437Z,0.98
2023-05-10T06:06:41.175Z,0.90
2023-05-10T06:09:09.793Z,1.20
2023-05-10T06:11:39.411Z,1.67
2023-05-10T06:14:08.978Z,1.40
2023-05-10T06:16:37.710Z,1.05
2023-05-10T06:19:06.290Z,0.98
2023-05-10T06:21:34.850Z,1.42
2023-05-10T06:24:04.730Z,1.50
2023-05-10T06:26:33.531Z,1.13
2023-05-10T06:29:02.676Z,1.00
2023-05-10T06:31:43.924Z,1.17
2023-05-10T06:34:33.483Z,1.17
2023-05-10T06:37:04.665Z,1.30
2023-05-10T06:39:35.882Z,1.15
2023-05-10T06:42:05.712Z,0.88
2023-05-10T06:45:07.751Z,1.08
2023-05-10T06:47:38.763Z,1.55
2023-05-10T06:50:09.061Z,1.27
2023-05-10T06:52:40.060Z,1.00
2023-05-10T06:55:17.688Z,1.30
2023-05-10T06:57:46.470Z,1.85
2023-05-10T07:00:34.747Z,1.20
2023-05-10T07:03:02.954Z,1.23
2023-05-10T07:05:31.325Z,1.65
2023-05-10T07:08:03.109Z,1.42
2023-05-10T07:10:31.463Z,1.42
2023-05-10T07:12:59.727Z,1.35
2023-05-10T07:15:30.170Z,1.30
2023-05-10T07:17:58.567Z,1.60
2023-05-10T07:20:26.756Z,1.60
2023-05-10T07:22:57.745Z,2.30
2023-05-10T07:25:26.469Z,2.20
2023-05-10T07:27:54.680Z,1.52
2023-05-10T07:30:25.367Z,1.05
2023-05-10T07:33:01.741Z,1.05
2023-05-10T07:35:30.065Z,1.30
2023-05-10T07:38:02.259Z,1.00
2023-05-10T07:41:03.349Z,1.52
2023-05-10T07:43:41.102Z,1.30
2023-05-10T07:46:11.520Z,1.30
2023-05-10T07:49:14.406Z,1.35
2023-05-10T07:51:43.900Z,1.60
2023-05-10T07:54:44.184Z,1.55
2023-05-10T07:57:19.819Z,1.10
2023-05-10T07:59:50.659Z,1.38
2023-05-10T08:02:19.324Z,1.52
2023-05-10T08:04:47.835Z,1.50
2023-05-10T08:07:16.635Z,1.23
2023-05-10T08:09:45.711Z,1.30
2023-05-10T08:12:17.495Z,1.30
2023-05-10T08:15:11.942Z,1.38
2023-05-10T08:17:40.977Z,1.50
2023-05-10T08:20:09.444Z,1.65
2023-05-10T08:22:38.577Z,1.45
2023-05-10T08:25:09.374Z,1.67
2023-05-10T08:27:38.046Z,1.33
2023-05-10T08:30:08.314Z,1.17
2023-05-10T08:32:40.672Z,1.60
2023-05-10T08:35:10.616Z,1.23
2023-05-10T08:37:41.202Z,1.17
2023-05-10T08:40:13.066Z,1.13
2023-05-10T08:42:42.205Z,1.33
2023-05-10T08:45:16.005Z,1.20
2023-05-10T08:47:48.231Z,1.50
2023-05-10T08:50:28.283Z,1.52
2023-05-10T08:53:15.703Z,1.70
2023-05-10T08:55:53.342Z,1.50
2023-05-10T08:58:54.545Z,1.52
2023-05-10T09:01:46.052Z,1.50
2023-05-10T09:04:22.754Z,1.60
2023-05-10T09:06:52.084Z,2.03
2023-05-10T09:09:20.826Z,1.80
2023-05-10T09:11:51.571Z,1.77
2023-05-10T09:14:21.720Z,1.67
2023-05-10T09:16:51.100Z,1.42
2023-05-10T09:19:20.556Z,1.45
2023-05-10T09:21:51.144Z,1.42
2023-05-10T09:24:34.578Z,1.88
2023-05-10T09:27:04.399Z,2.35
2023-05-10T09:29:43.782Z,1.23
2023-05-10T09:32:13.844Z,1.88
2023-05-10T09:34:42.413Z,1.42
2023-05-10T09:37:10.792Z,1.90
2023-05-10T09:39:43.276Z,1.48
2023-05-10T09:42:14.240Z,1.90
2023-05-10T09:45:03.468Z,1.95
2023-05-10T09:47:36.280Z,2.13
2023-05-10T09:50:14.951Z,1.20
2023-05-10T09:52:48.839Z,1.20
2023-05-10T09:55:19.005Z,1.50
2023-05-10T10:00:57.211Z,1.67
2023-05-10T10:03:25.589Z,1.80
2023-05-10T10:06:03.392Z,1.90
2023-05-10T10:08:48.088Z,1.83
2023-05-10T10:11:17.561Z,2.42
2023-05-10T10:13:54.333Z,2.35
2023-05-10T10:16:22.638Z,2.60
2023-05-10T10:18:50.914Z,2.83
2023-05-10T10:21:19.789Z,3.20
2023-05-10T10:23:49.890Z,2.60
2023-05-10T10:27:10.563Z,2.92
2023-05-10T10:29:59.518Z,2.47
2023-05-10T10:33:29.095Z,2.45
2023-05-10T10:36:42.681Z,2.58
2023-05-10T10:42:47.653Z,2.13
2023-05-10T10:45:28.455Z,2.38
2023-05-10T10:48:22.080Z,1.73
2023-05-10T10:51:01.950Z,2.25
2023-05-10T10:54:20.803Z,1.90
2023-05-10T10:57:27.641Z,1.80
2023-05-10T11:00:21.238Z,2.28
2023-05-10T11:03:15.139Z,1.50
2023-05-10T11:05:54.929Z,1.75
2023-05-10T11:08:36.421Z,1.80
2023-05-10T11:11:15.175Z,1.40
2023-05-10T11:16:57.309Z,1.17
2023-05-10T11:19:33.875Z,1.63
2023-05-10T11:22:05.990Z,1.55
2023-05-10T11:24:37.534Z,1.70
2023-05-10T11:27:05.736Z,5.75
2023-05-10T11:29:34.460Z,1.90
2023-05-10T11:32:09.421Z,2.00
2023-05-10T11:34:38.880Z,1.65
2023-05-10T11:37:06.900Z,1.83
2023-05-10T11:39:46.374Z,2.13
2023-05-10T11:42:14.780Z,2.35
2023-05-10T11:44:47.486Z,1.85
2023-05-10T11:47:19.459Z,1.35
2023-05-10T11:49:52.329Z,1.33
2023-05-10T11:52:21.905Z,1.40
2023-05-10T11:54:55.332Z,1.63
2023-05-10T11:57:29.342Z,1.58
2023-05-10T12:00:01.840Z,1.38
2023-05-10T12:02:31.739Z,1.30
2023-05-10T12:05:20.039Z,1.50
2023-05-10T12:07:50.624Z,1.40
2023-05-10T12:10:20.412Z,1.10
2023-05-10T12:12:54.150Z,1.52
2023-05-10T12:15:32.973Z,1.50
2023-05-10T12:18:02.494Z,1.75
2023-05-10T12:20:31.073Z,1.58
2023-05-10T12:23:05.185Z,1.80
2023-05-10T12:25:37.010Z,1.73
2023-05-10T12:28:30.699Z,2.25
2023-05-10T12:31:01.369Z,1.98
2023-05-10T12:33:48.710Z,1.90
2023-05-10T12:36:44.415Z,1.60
2023-05-10T12:39:12.865Z,1.58
2023-05-10T12:41:43.472Z,1.40
2023-05-10T12:44:12.148Z,1.60
2023-05-10T12:46:42.133Z,1.50
2023-05-10T12:49:11.022Z,1.42
2023-05-10T12:51:39.311Z,1.70
2023-05-10T12:54:17.857Z,1.40
2023-05-10T12:56:46.233Z,1.50
2023-05-10T12:59:30.279Z,1.48
2023-05-10T13:02:02.636Z,1.52
2023-05-10T13:04:32.462Z,1.20
2023-05-10T13:07:16.097Z,1.67
2023-05-10T13:09:49.171Z,1.80
2023-05-10T13:12:20.445Z,1.88
2023-05-10T13:14:48.716Z,2.30
2023-05-10T13:17:18.048Z,2.22
2023-05-10T13:19:47.473Z,2.30
2023-05-10T13:22:25.822Z,3.25
2023-05-10T13:25:45.220Z,3.00
2023-05-10T13:28:13.804Z,3.05
2023-05-10T13:30:41.945Z,1.75
2023-05-10T13:33:09.974Z,2.15
2023-05-10T13:38:53.028Z,2.33
2023-05-10T13:41:30.178Z,1.80
2023-05-10T13:44:03.209Z,1.48
2023-05-10T13:46:32.254Z,2.05
2023-05-10T13:49:01.989Z,2.20
2023-05-10T13:51:43.335Z,1.92
2023-05-10T13:54:21.080Z,2.22
2023-05-10T13:57:03.097Z,1.58
2023-05-10T13:59:32.963Z,1.73
2023-05-10T14:02:03.793Z,1.98
2023-05-10T14:04:40.373Z,1.73
2023-05-10T14:09:45.019Z,1.45
2023-05-10T14:12:13.282Z,1.60
2023-05-10T14:14:43.417Z,2.22
2023-05-10T14:17:15.859Z,2.00
2023-05-10T14:19:46.708Z,1.88
2023-05-10T14:22:15.348Z,1.58
2023-05-10T14:25:18.633Z,2.10
2023-05-10T14:27:48.390Z,2.10
2023-05-10T14:30:17.435Z,2.15
2023-05-10T14:33:05.972Z,2.05
2023-05-10T14:35:35.099Z,2.00
2023-05-10T14:38:04.753Z,1.73
2023-05-10T14:40:35.627Z,2.00
2023-05-10T14:43:04.164Z,5.75
2023-05-10T14:45:33.896Z,1.95
2023-05-10T14:48:05.939Z,2.13
2023-05-10T14:50:36.672Z,1.88
2023-05-10T14:53:07.101Z,1.98
2023-05-10T14:55:37.049Z,1.77
2023-05-10T14:58:04.994Z,1.98
2023-05-10T15:00:37.849Z,2.00
2023-05-10T15:03:17.525Z,1.88
2023-05-10T15:05:46.368Z,2.38
2023-05-10T15:08:15.564Z,1.80
2023-05-10T15:10:45.077Z,2.15
2023-05-10T15:13:17.687Z,2.30
2023-05-10T15:15:48.524Z,2.15
2023-05-10T15:19:17.114Z,1.90
2023-05-10T15:22:06.646Z,1.95
2023-05-10T15:24:35.366Z,1.90
2023-05-10T15:27:04.787Z,2.00
2023-05-10T15:29:35.401Z,1.50
2023-05-10T15:32:07.107Z,1.77
2023-05-10T15:34:38.201Z,1.50
2023-05-10T15:37:06.524Z,1.90
2023-05-10T15:39:35.322Z,1.88
2023-05-10T15:42:04.406Z,1.90
2023-05-10T15:44:36.099Z,1.90
2023-05-10T15:47:05.811Z,2.30
2023-05-10T15:49:36.346Z,2.00
2023-05-10T15:52:04.492Z,2.00
2023-05-10T15:54:36.179Z,2.00
2023-05-10T15:57:07.345Z,1.90
2023-05-10T15:59:55.354Z,1.70
2023-05-10T16:02:46.515Z,1.92
2023-05-10T16:05:17.675Z,2.00
2023-05-10T16:07:49.788Z,2.20
2023-05-10T16:10:17.940Z,2.95
2023-05-10T16:12:47.026Z,2.20
2023-05-10T16:15:24.668Z,2.35
2023-05-10T16:17:54.575Z,2.60
2023-05-10T16:20:25.146Z,2.53
2023-05-10T16:22:55.902Z,2.58
2023-05-10T16:25:24.681Z,3.95
2023-05-10T16:27:54.382Z,2.45
2023-05-10T16:30:24.693Z,2.42
2023-05-10T16:32:54.446Z,12.82
2023-05-10T16:35:24.689Z,2.50
2023-05-10T16:37:54.756Z,2.20
2023-05-10T16:40:24.386Z,3.00
2023-05-10T16:42:52.908Z,2.80
2023-05-10T16:45:22.969Z,2.30
2023-05-10T16:47:54.060Z,2.92
2023-05-10T16:50:22.930Z,2.67
2023-05-10T16:52:51.210Z,2.90
2023-05-10T16:55:19.749Z,2.83
2023-05-10T16:57:48.174Z,2.70
2023-05-10T17:00:42.196Z,2.47
2023-05-10T17:03:32.526Z,2.80
2023-05-10T17:06:01.228Z,2.83
2023-05-10T17:08:29.515Z,3.20
2023-05-10T17:11:01.160Z,2.50
2023-05-10T17:13:32.400Z,2.75
2023-05-10T17:16:04.194Z,2.83
2023-05-10T17:18:34.283Z,2.70
2023-05-10T17:21:18.084Z,3.45
2023-05-10T17:24:00.494Z,3.05
2023-05-10T17:26:32.393Z,2.78
2023-05-10T17:29:04.232Z,3.58
2023-05-10T17:31:34.397Z,3.47
2023-05-10T17:34:05.294Z,2.97
2023-05-10T17:36:34.972Z,3.90
2023-05-10T17:39:03.504Z,3.03
2023-05-10T17:41:33.972Z,5.05
2023-05-10T17:44:02.482Z,3.42
2023-05-10T17:46:33.099Z,3.28
2023-05-10T17:49:02.505Z,4.18
2023-05-10T17:51:33.310Z,6.45
2023-05-10T17:54:02.569Z,4.07
2023-05-10T17:56:36.279Z,5.75
2023-05-10T17:59:05.930Z,5.82
2023-05-10T18:01:38.145Z,4.50
2023-05-10T18:04:08.203Z,9.48
2023-05-10T18:06:41.831Z,8.43
2023-05-10T18:09:10.428Z,13.27
2023-05-10T18:11:40.245Z,9.40
2023-05-10T18:14:08.841Z,14.85
2023-05-10T18:16:37.721Z,27.38
2023-05-10T18:19:06.097Z,18.35
2023-05-10T18:21:34.881Z,20.40
2023-05-10T18:24:05.728Z,26.55
2023-05-10T18:26:34.027Z,28.95
2023-05-10T18:29:02.459Z,31.80
2023-05-10T18:31:52.434Z,35.28
2023-05-10T18:34:22.433Z,32.20
2023-05-10T18:37:14.835Z,32.08
2023-05-10T18:39:43.204Z,30.38
2023-05-10T18:42:11.905Z,29.35
2023-05-10T18:45:04.781Z,21.25
2023-05-10T18:47:52.914Z,24.80
2023-05-10T18:50:25.742Z,21.33
2023-05-10T18:52:56.964Z,21.52
2023-05-10T18:55:28.622Z,22.73
2023-05-10T18:57:57.087Z,22.48
2023-05-10T19:00:29.997Z,22.95
2023-05-10T19:02:58.491Z,25.52
2023-05-10T19:05:35.386Z,26.83
2023-05-10T19:08:13.139Z,19.27
2023-05-10T19:10:43.227Z,18.88
2023-05-10T19:13:18.507Z,18.17
2023-05-10T19:15:48.193Z,13.20
2023-05-10T19:18:18.866Z,13.85
2023-05-10T19:20:50.381Z,14.43
2023-05-10T19:23:22.052Z,11.73
2023-05-10T19:25:53.964Z,10.88
2023-05-10T19:28:25.107Z,10.07
2023-05-10T19:30:55.094Z,10.75
2023-05-10T19:33:29.821Z,10.90
2023-05-10T19:35:58.776Z,10.15
2023-05-10T19:38:34.822Z,10.00
2023-05-10T19:41:05.453Z,9.80
2023-05-10T19:43:35.224Z,10.10
2023-05-10T19:46:07.475Z,10.75
2023-05-10T19:48:42.325Z,9.93
2023-05-10T19:53:56.087Z,10.13
2023-05-10T19:56:24.387Z,9.75
2023-05-10T19:58:53.549Z,10.00
2023-05-10T20:01:22.220Z,9.23
2023-05-10T20:03:56.394Z,8.55
2023-05-10T20:06:30.210Z,9.38
2023-05-10T20:09:01.669Z,8.68
2023-05-10T20:11:31.516Z,8.82
2023-05-10T20:14:00.410Z,8.63
2023-05-10T20:16:48.718Z,8.45
2023-05-10T20:19:19.776Z,8.98
2023-05-10T20:21:52.245Z,9.25
2023-05-10T20:24:23.701Z,8.73
2023-05-10T20:26:52.574Z,7.57
2023-05-10T20:29:20.772Z,8.93
2023-05-10T20:31:49.097Z,8.13
2023-05-10T20:34:17.780Z,7.65
2023-05-10T20:36:49.956Z,8.20
2023-05-10T20:39:19.344Z,8.13
2023-05-10T20:41:47.588Z,8.30
2023-05-10T20:44:16.387Z,9.30
2023-05-10T20:46:45.465Z,7.63
2023-05-10T20:49:17.881Z,8.68
2023-05-10T20:51:50.646Z,7.22
2023-05-10T20:54:25.380Z,7.30
2023-05-10T20:57:00.236Z,6.70
2023-05-10T20:59:28.754Z,6.85
2023-05-10T21:02:00.590Z,7.15
2023-05-10T21:04:35.560Z,7.20
2023-05-10T21:07:04.603Z,6.77
2023-05-10T21:09:35.580Z,6.63
2023-05-10T21:12:15.348Z,7.10
2023-05-10T21:14:44.510Z,7.25
2023-05-10T21:17:19.440Z,6.68
2023-05-10T21:19:50.900Z,6.53
2023-05-10T21:22:19.107Z,6.82
2023-05-10T21:24:47.394Z,7.05
2023-05-10T21:27:18.843Z,5.95
2023-05-10T21:29:49.519Z,7.18
2023-05-10T21:32:21.502Z,7.47
2023-05-10T21:34:52.789Z,7.50
2023-05-10T21:37:21.765Z,8.27
2023-05-10T21:40:02.058Z,8.25
2023-05-10T21:42:33.184Z,7.63
2023-05-10T21:45:01.774Z,7.43
2023-05-10T21:47:30.276Z,7.25
2023-05-10T21:49:58.536Z,7.13
2023-05-10T21:52:27.137Z,7.38
2023-05-10T21:54:56.666Z,8.68
2023-05-10T21:57:25.060Z,6.78
2023-05-10T21:59:54.580Z,6.97
2023-05-10T22:02:24.247Z,7.65
2023-05-10T22:04:52.338Z,9.23
2023-05-10T22:07:20.838Z,7.68
2023-05-10T22:09:49.323Z,8.88
2023-05-10T22:12:18.861Z,8.77
2023-05-10T22:14:50.027Z,8.45
2023-05-10T22:19:52.196Z,9.40
2023-05-10T22:22:22.230Z,7.07
2023-05-10T22:24:50.719Z,9.38
2023-05-10T22:27:20.675Z,8.10
2023-05-10T22:29:56.894Z,7.53
2023-05-10T22:32:25.006Z,8.73
2023-05-10T22:35:01.628Z,8.25
2023-05-10T22:37:29.994Z,7.75
2023-05-10T22:39:59.357Z,6.88
2023-05-10T22:42:27.848Z,7.18
2023-05-10T22:44:56.038Z,7.93
2023-05-10T22:47:25.811Z,8.68
2023-05-10T22:49:57.068Z,7.68
2023-05-10T22:52:26.510Z,7.78
2023-05-10T22:54:55.259Z,8.77
2023-05-10T22:57:23.497Z,7.28
2023-05-10T22:59:51.822Z,9.18
2023-05-10T23:02:20.341Z,8.82
2023-05-10T23:04:48.814Z,8.40
2023-05-10T23:07:19.402Z,7.90
2023-05-10T23:09:50.136Z,7.45
2023-05-10T23:12:18.375Z,7.88
2023-05-10T23:14:49.734Z,7.15
2023-05-10T23:17:17.843Z,6.22
2023-05-10T23:19:52.667Z,6.20
2023-05-10T23:22:21.617Z,6.07
2023-05-10T23:24:49.576Z,6.30
2023-05-10T23:27:18.082Z,6.63
2023-05-10T23:29:46.062Z,5.30
2023-05-10T23:32:14.142Z,6.32
2023-05-10T23:34:42.590Z,5.90
2023-05-10T23:37:10.592Z,6.90
2023-05-10T23:39:39.035Z,6.30
2023-05-10T23:42:10.712Z,6.57
2023-05-10T23:44:38.881Z,6.75
2023-05-10T23:47:07.466Z,6.65
2023-05-10T23:49:36.610Z,7.70
2023-05-10T23:52:05.194Z,6.15
2023-05-10T23:54:33.659Z,6.20
2023-05-10T23:57:41.295Z,6.95
